Time;durP1;ratioP1;P1;durP2;ratioP2;P2;SDS_P1;SDS_P2;PMS_P1;PMS_P2;Temp;Humidity;BMP_temperature;BMP_pressure;BME280_temperature;BME280_humidity;BME280_pressure;Samples;Min_cycle;Max_cycle;Signal;HPM_P1;HPM_P2
2021/08/12 00:00:14;;;;;;;0.13;0.13;;;;;;;;;;6275696;22;20018;-87
2021/08/12 00:02:40;;;;;;;0.20;0.20;;;;;;;;;;6275625;22;20015;-87
2021/08/12 00:05:09;;;;;;;0.20;0.20;;;;;;;;;;6275539;22;20007;-87
2021/08/12 00:07:35;;;;;;;0.10;0.10;;;;;;;;;;6275238;22;20047;-87
2021/08/12 00:10:02;;;;;;;0.10;0.10;;;;;;;;;;6250042;22;20070;-87
2021/08/12 00:12:28;;;;;;;0.10;0.10;;;;;;;;;;6275326;22;20016;-87
2021/08/12 00:14:54;;;;;;;0.10;0.10;;;;;;;;;;6250055;22;20008;-87
2021/08/12 00:17:20;;;;;;;0.15;0.15;;;;;;;;;;6249556;22;20015;-87
2021/08/12 00:19:46;;;;;;;0.10;0.10;;;;;;;;;;6249638;22;20338;-87
2021/08/12 00:22:12;;;;;;;0.10;0.10;;;;;;;;;;6249796;22;20043;-88
2021/08/12 00:24:38;;;;;;;0.10;0.10;;;;;;;;;;6275456;22;20007;-87
2021/08/12 00:27:04;;;;;;;0.10;0.10;;;;;;;;;;6275276;22;20018;-87
2021/08/12 00:29:30;;;;;;;0.10;0.10;;;;;;;;;;6275363;22;20012;-87
2021/08/12 00:31:56;;;;;;;0.10;0.10;;;;;;;;;;6275170;22;20012;-87
2021/08/12 00:34:23;;;;;;;0.10;0.10;;;;;;;;;;6249673;22;20380;-88
2021/08/12 00:36:49;;;;;;;0.20;0.20;;;;;;;;;;6223961;22;20007;-88
2021/08/12 00:39:16;;;;;;;0.10;0.10;;;;;;;;;;6249388;22;20015;-88
2021/08/12 00:41:42;;;;;;;0.20;0.20;;;;;;;;;;6275333;22;20442;-85
2021/08/12 00:44:08;;;;;;;0.20;0.20;;;;;;;;;;6275122;22;20015;-87
2021/08/12 00:46:34;;;;;;;0.13;0.13;;;;;;;;;;6276332;22;20031;-87
2021/08/12 00:49:00;;;;;;;0.10;0.10;;;;;;;;;;6274779;22;20036;-88
2021/08/12 00:51:26;;;;;;;0.20;0.20;;;;;;;;;;6249579;22;20012;-88
2021/08/12 00:53:52;;;;;;;0.10;0.10;;;;;;;;;;6275120;22;20012;-88
2021/08/12 00:56:18;;;;;;;0.10;0.10;;;;;;;;;;6275033;22;20065;-88
2021/08/12 00:58:44;;;;;;;0.20;0.20;;;;;;;;;;6274572;22;20016;-88
2021/08/12 01:01:10;;;;;;;0.10;0.10;;;;;;;;;;6275074;22;20016;-87
2021/08/12 01:03:36;;;;;;;0.10;0.10;;;;;;;;;;6274985;22;20460;-88
2021/08/12 01:06:02;;;;;;;0.10;0.10;;;;;;;;;;6249441;22;20298;-87
2021/08/12 01:08:40;;;;;;;0.10;0.10;;;;;;;;;;6249309;22;20080;-88
2021/08/12 01:11:25;;;;;;;0.10;0.10;;;;;;;;;;6249292;22;20464;-88
2021/08/12 01:14:10;;;;;;;0.10;0.10;;;;;;;;;;6284749;22;20459;-88
2021/08/12 01:16:37;;;;;;;0.10;0.10;;;;;;;;;;6248559;22;20094;-88
2021/08/12 01:19:14;;;;;;;0.10;0.10;;;;;;;;;;6276003;22;20087;-87
2021/08/12 01:21:49;;;;;;;0.10;0.10;;;;;;;;;;6284714;22;20012;-87
2021/08/12 01:24:15;;;;;;;0.20;0.20;;;;;;;;;;6274702;22;20061;-87
2021/08/12 01:26:42;;;;;;;0.10;0.10;;;;;;;;;;6248781;22;20016;-87
2021/08/12 01:29:08;;;;;;;0.20;0.20;;;;;;;;;;6274673;22;20015;-87
2021/08/12 01:31:43;;;;;;;0.10;0.10;;;;;;;;;;6223468;22;20450;-87
2021/08/12 01:34:15;;;;;;;0.20;0.20;;;;;;;;;;6274194;22;20330;-87
2021/08/12 01:36:42;;;;;;;0.10;0.10;;;;;;;;;;6275667;22;20445;-88
2021/08/12 01:39:10;;;;;;;0.10;0.10;;;;;;;;;;6274263;22;20016;-87
2021/08/12 01:41:36;;;;;;;0.20;0.20;;;;;;;;;;6249411;22;20086;-87
2021/08/12 01:44:03;;;;;;;0.10;0.10;;;;;;;;;;6248698;22;20077;-87
2021/08/12 01:46:29;;;;;;;0.10;0.10;;;;;;;;;;6275836;22;20437;-87
2021/08/12 01:48:55;;;;;;;0.10;0.10;;;;;;;;;;6274470;22;20372;-87
2021/08/12 01:51:22;;;;;;;0.10;0.10;;;;;;;;;;6274221;22;20087;-87
2021/08/12 01:53:48;;;;;;;0.20;0.20;;;;;;;;;;6274398;22;20012;-87
2021/08/12 01:56:15;;;;;;;0.10;0.10;;;;;;;;;;6248739;22;20082;-87
2021/08/12 01:58:41;;;;;;;0.10;0.10;;;;;;;;;;6275692;22;20011;-87
2021/08/12 02:01:07;;;;;;;0.10;0.10;;;;;;;;;;6274397;22;20016;-87
2021/08/12 02:03:33;;;;;;;0.20;0.20;;;;;;;;;;6275778;22;20310;-87
2021/08/12 02:05:59;;;;;;;0.10;0.10;;;;;;;;;;6248557;22;20026;-87
2021/08/12 02:08:25;;;;;;;0.10;0.10;;;;;;;;;;6248376;22;20047;-87
2021/08/12 02:10:51;;;;;;;0.10;0.10;;;;;;;;;;6274130;22;20341;-87
2021/08/12 02:13:24;;;;;;;0.10;0.10;;;;;;;;;;6249258;22;20043;-88
2021/08/12 02:15:50;;;;;;;0.10;0.10;;;;;;;;;;6249541;22;20013;-88
2021/08/12 02:18:16;;;;;;;0.10;0.10;;;;;;;;;;6274145;22;20086;-88
2021/08/12 02:20:42;;;;;;;0.13;0.13;;;;;;;;;;6274126;22;20016;-87
2021/08/12 02:23:29;;;;;;;0.10;0.10;;;;;;;;;;6248424;22;20023;-87
2021/08/12 02:26:00;;;;;;;0.10;0.10;;;;;;;;;;6274128;22;20007;-88
2021/08/12 02:28:26;;;;;;;0.10;0.10;;;;;;;;;;6273920;22;20019;-88
2021/08/12 02:30:53;;;;;;;0.10;0.10;;;;;;;;;;6273764;22;20066;-87
2021/08/12 02:33:20;;;;;;;0.10;0.10;;;;;;;;;;6274219;22;20023;-87
2021/08/12 02:35:46;;;;;;;0.10;0.10;;;;;;;;;;6248747;22;20047;-86
2021/08/12 02:38:12;;;;;;;0.10;0.10;;;;;;;;;;6248000;22;20023;-86
2021/08/12 02:40:38;;;;;;;0.10;0.10;;;;;;;;;;6249157;22;20068;-91
2021/08/12 02:43:05;;;;;;;0.10;0.10;;;;;;;;;;6248970;22;20085;-89
2021/08/12 02:45:31;;;;;;;0.10;0.10;;;;;;;;;;6249460;22;20012;-90
2021/08/12 02:47:57;;;;;;;0.10;0.10;;;;;;;;;;6222928;22;20011;-87
2021/08/12 02:50:23;;;;;;;0.10;0.10;;;;;;;;;;6248513;22;20086;-88
2021/08/12 02:52:49;;;;;;;0.10;0.10;;;;;;;;;;6248627;22;20020;-88
2021/08/12 02:55:15;;;;;;;0.10;0.10;;;;;;;;;;6248255;22;20445;-87
2021/08/12 02:57:41;;;;;;;0.10;0.10;;;;;;;;;;6273972;22;20043;-88
2021/08/12 03:00:09;;;;;;;0.20;0.20;;;;;;;;;;6275116;22;20019;-87
2021/08/12 03:02:35;;;;;;;0.10;0.10;;;;;;;;;;6275260;22;20019;-87
2021/08/12 03:05:01;;;;;;;0.10;0.10;;;;;;;;;;6248353;22;20019;-87
2021/08/12 03:07:27;;;;;;;0.10;0.10;;;;;;;;;;6248222;22;20016;-87
2021/08/12 03:09:53;;;;;;;0.10;0.10;;;;;;;;;;6273745;22;20011;-87
2021/08/12 03:12:19;;;;;;;0.10;0.10;;;;;;;;;;6274070;22;20073;-87
2021/08/12 03:14:48;;;;;;;0.10;0.10;;;;;;;;;;6248617;22;20402;-87
2021/08/12 03:17:14;;;;;;;0.20;0.20;;;;;;;;;;6275116;22;20015;-87
2021/08/12 03:19:40;;;;;;;0.10;0.10;;;;;;;;;;6248220;22;20380;-87
2021/08/12 03:22:07;;;;;;;0.10;0.10;;;;;;;;;;6273421;22;20015;-86
2021/08/12 03:24:34;;;;;;;0.20;0.20;;;;;;;;;;6273830;22;20016;-86
2021/08/12 03:27:00;;;;;;;0.20;0.20;;;;;;;;;;6273627;22;20019;-86
2021/08/12 03:29:27;;;;;;;0.10;0.10;;;;;;;;;;6273462;22;20014;-87
2021/08/12 03:31:53;;;;;;;0.20;0.20;;;;;;;;;;6275847;22;20007;-87
2021/08/12 03:34:19;;;;;;;0.10;0.10;;;;;;;;;;6275820;22;20094;-88
2021/08/12 03:36:45;;;;;;;0.10;0.10;;;;;;;;;;6275724;22;20213;-87
2021/08/12 03:39:11;;;;;;;0.10;0.10;;;;;;;;;;6277051;22;20015;-87
2021/08/12 03:41:37;;;;;;;0.10;0.10;;;;;;;;;;6277042;22;20472;-87
2021/08/12 03:44:03;;;;;;;0.10;0.10;;;;;;;;;;6275627;22;20433;-88
2021/08/12 03:46:29;;;;;;;0.13;0.13;;;;;;;;;;6275604;22;20472;-88
2021/08/12 03:48:55;;;;;;;0.20;0.20;;;;;;;;;;6275747;22;20333;-88
2021/08/12 03:51:21;;;;;;;0.10;0.10;;;;;;;;;;6275700;22;20086;-87
2021/08/12 03:53:47;;;;;;;0.10;0.10;;;;;;;;;;6249916;22;20023;-88
2021/08/12 03:56:13;;;;;;;0.10;0.10;;;;;;;;;;6275604;22;20011;-87
2021/08/12 03:58:40;;;;;;;0.20;0.20;;;;;;;;;;6276535;22;20011;-88
2021/08/12 04:01:08;;;;;;;0.10;0.10;;;;;;;;;;6225306;22;20445;-88
2021/08/12 04:03:34;;;;;;;0.15;0.15;;;;;;;;;;6275516;22;20008;-88
2021/08/12 04:06:00;;;;;;;0.10;0.10;;;;;;;;;;6275528;22;20464;-87
2021/08/12 04:08:28;;;;;;;0.10;0.10;;;;;;;;;;6250101;22;20007;-87
2021/08/12 04:10:54;;;;;;;0.10;0.10;;;;;;;;;;6250018;22;20077;-87
2021/08/12 04:13:20;;;;;;;0.10;0.10;;;;;;;;;;6275244;22;20039;-87
2021/08/12 04:15:47;;;;;;;0.20;0.20;;;;;;;;;;6249797;22;20090;-87
2021/08/12 04:18:13;;;;;;;0.10;0.10;;;;;;;;;;6249895;22;20171;-87
2021/08/12 04:20:39;;;;;;;0.10;0.10;;;;;;;;;;6275254;22;20505;-88
2021/08/12 04:23:06;;;;;;;0.10;0.10;;;;;;;;;;6275302;22;20012;-87
2021/08/12 04:25:32;;;;;;;0.20;0.20;;;;;;;;;;6275331;22;20019;-88
2021/08/12 04:27:58;;;;;;;0.30;0.30;;;;;;;;;;6275120;22;20330;-87
2021/08/12 04:30:24;;;;;;;0.30;0.20;;;;;;;;;;6275473;22;20019;-87
2021/08/12 04:32:50;;;;;;;0.20;0.20;;;;;;;;;;6275183;22;20022;-87
2021/08/12 04:35:16;;;;;;;0.10;0.10;;;;;;;;;;6276450;22;20008;-87
2021/08/12 04:37:44;;;;;;;0.10;0.10;;;;;;;;;;6275006;22;20492;-87
2021/08/12 04:40:11;;;;;;;0.10;0.10;;;;;;;;;;6275175;22;20375;-88
2021/08/12 04:42:38;;;;;;;0.20;0.20;;;;;;;;;;6249647;22;20015;-87
2021/08/12 04:45:04;;;;;;;0.10;0.10;;;;;;;;;;6275318;22;20007;-87
2021/08/12 04:47:32;;;;;;;0.32;0.30;;;;;;;;;;6276529;22;20012;-88
2021/08/12 04:49:58;;;;;;;0.10;0.10;;;;;;;;;;6249490;22;20384;-87
2021/08/12 04:52:24;;;;;;;0.10;0.10;;;;;;;;;;6249744;22;20327;-87
2021/08/12 04:54:50;;;;;;;0.10;0.10;;;;;;;;;;6274617;22;20016;-88
2021/08/12 04:57:16;;;;;;;0.10;0.10;;;;;;;;;;6274967;22;20060;-88
2021/08/12 04:59:42;;;;;;;0.20;0.20;;;;;;;;;;6249691;22;20081;-87
2021/08/12 05:02:08;;;;;;;0.10;0.10;;;;;;;;;;6275119;22;20449;-87
2021/08/12 05:04:34;;;;;;;0.10;0.10;;;;;;;;;;6249503;22;20019;-88
2021/08/12 05:07:00;;;;;;;0.10;0.10;;;;;;;;;;6249219;22;20015;-88
2021/08/12 05:09:26;;;;;;;0.20;0.20;;;;;;;;;;6249728;22;20018;-88
2021/08/12 05:11:52;;;;;;;0.10;0.10;;;;;;;;;;6249084;22;20016;-88
2021/08/12 05:14:18;;;;;;;0.10;0.10;;;;;;;;;;6274967;22;20008;-88
2021/08/12 05:16:46;;;;;;;0.10;0.10;;;;;;;;;;6249532;22;20032;-88
2021/08/12 05:19:12;;;;;;;0.10;0.10;;;;;;;;;;6274862;22;20019;-88
2021/08/12 05:21:38;;;;;;;0.10;0.10;;;;;;;;;;6223110;22;20353;-88
2021/08/12 05:24:04;;;;;;;0.10;0.10;;;;;;;;;;6274636;22;20029;-88
2021/08/12 05:26:31;;;;;;;0.10;0.10;;;;;;;;;;6224074;22;20008;-88
2021/08/12 05:28:57;;;;;;;0.10;0.10;;;;;;;;;;6274640;22;20026;-87
2021/08/12 05:31:23;;;;;;;0.10;0.10;;;;;;;;;;6276864;22;20437;-90
2021/08/12 05:33:50;;;;;;;0.20;0.20;;;;;;;;;;6275323;22;20090;-88
2021/08/12 05:36:16;;;;;;;0.10;0.10;;;;;;;;;;6248881;22;20057;-88
2021/08/12 05:38:42;;;;;;;0.20;0.20;;;;;;;;;;6275656;22;20091;-88
2021/08/12 05:41:08;;;;;;;0.10;0.10;;;;;;;;;;6274709;22;20027;-87
2021/08/12 05:43:34;;;;;;;0.10;0.10;;;;;;;;;;6274575;22;20357;-87
2021/08/12 05:46:02;;;;;;;0.20;0.20;;;;;;;;;;6248990;22;20016;-87
2021/08/12 05:48:28;;;;;;;0.10;0.10;;;;;;;;;;6274160;22;20464;-87
2021/08/12 05:50:54;;;;;;;0.10;0.10;;;;;;;;;;6274178;22;20338;-87
2021/08/12 05:53:20;;;;;;;0.10;0.10;;;;;;;;;;6273891;22;20073;-87
2021/08/12 05:55:47;;;;;;;0.10;0.10;;;;;;;;;;6248695;22;20334;-87
2021/08/12 05:58:13;;;;;;;0.10;0.10;;;;;;;;;;6274309;22;20061;-87
2021/08/12 06:00:40;;;;;;;0.10;0.10;;;;;;;;;;6249121;22;20082;-87
2021/08/12 06:03:06;;;;;;;0.10;0.10;;;;;;;;;;6274849;22;20434;-88
2021/08/12 06:05:33;;;;;;;0.20;0.20;;;;;;;;;;6274653;22;20015;-89
2021/08/12 06:08:01;;;;;;;0.20;0.20;;;;;;;;;;6248724;22;20014;-87
2021/08/12 06:10:27;;;;;;;0.10;0.10;;;;;;;;;;6248841;22;20114;-88
2021/08/12 06:12:54;;;;;;;0.10;0.10;;;;;;;;;;6248551;22;20015;-88
2021/08/12 06:15:22;;;;;;;0.10;0.10;;;;;;;;;;6274288;22;20019;-92
2021/08/12 06:17:50;;;;;;;0.10;0.10;;;;;;;;;;6250245;22;20019;-87
2021/08/12 06:20:16;;;;;;;0.10;0.10;;;;;;;;;;6248703;22;20130;-90
2021/08/12 06:22:43;;;;;;;0.20;0.20;;;;;;;;;;6248787;22;20011;-86
2021/08/12 06:25:09;;;;;;;0.20;0.20;;;;;;;;;;6273974;22;20007;-86
2021/08/12 06:27:35;;;;;;;0.32;0.32;;;;;;;;;;6275694;22;20012;-87
2021/08/12 06:30:01;;;;;;;0.30;0.30;;;;;;;;;;6274421;22;20008;-87
2021/08/12 06:32:28;;;;;;;0.20;0.20;;;;;;;;;;6274217;22;20015;-87
2021/08/12 06:34:54;;;;;;;0.10;0.10;;;;;;;;;;6223415;22;20011;-87
2021/08/12 06:37:20;;;;;;;0.43;0.43;;;;;;;;;;6274717;22;20073;-86
2021/08/12 06:39:46;;;;;;;0.20;0.20;;;;;;;;;;6248481;22;20012;-87
2021/08/12 06:42:12;;;;;;;0.10;0.10;;;;;;;;;;6274112;22;20012;-86
2021/08/12 06:44:38;;;;;;;0.20;0.20;;;;;;;;;;6275571;22;20016;-88
2021/08/12 06:47:04;;;;;;;0.15;0.15;;;;;;;;;;6274219;22;20460;-87
2021/08/12 06:49:32;;;;;;;0.10;0.10;;;;;;;;;;6274022;22;20065;-87
2021/08/12 06:51:58;;;;;;;0.10;0.10;;;;;;;;;;6248241;22;20102;-86
2021/08/12 06:54:24;;;;;;;0.10;0.10;;;;;;;;;;6274081;22;20062;-86
2021/08/12 06:56:50;;;;;;;0.10;0.10;;;;;;;;;;6273582;22;20015;-88
2021/08/12 06:59:16;;;;;;;0.10;0.10;;;;;;;;;;6248307;22;20472;-89
2021/08/12 07:01:42;;;;;;;0.10;0.10;;;;;;;;;;6248818;22;20015;-89
2021/08/12 07:04:09;;;;;;;0.10;0.10;;;;;;;;;;6276280;22;20107;-89
2021/08/12 07:06:38;;;;;;;0.20;0.20;;;;;;;;;;6277643;22;20229;-89
2021/08/12 07:09:04;;;;;;;0.10;0.10;;;;;;;;;;6276241;22;20007;-89
2021/08/12 07:11:30;;;;;;;0.20;0.20;;;;;;;;;;6275869;22;20019;-89
2021/08/12 07:13:56;;;;;;;0.10;0.10;;;;;;;;;;6250070;22;20015;-89
2021/08/12 07:16:23;;;;;;;0.10;0.10;;;;;;;;;;6277323;22;20086;-89
2021/08/12 07:18:50;;;;;;;0.20;0.20;;;;;;;;;;6275625;22;20019;-89
2021/08/12 07:21:17;;;;;;;0.10;0.10;;;;;;;;;;6275874;22;20039;-89
2021/08/12 07:23:43;;;;;;;0.10;0.10;;;;;;;;;;6277286;22;20122;-89
2021/08/12 07:26:12;;;;;;;0.10;0.10;;;;;;;;;;6275865;22;20019;-89
2021/08/12 07:28:39;;;;;;;0.20;0.20;;;;;;;;;;6250713;22;20018;-89
2021/08/12 07:31:06;;;;;;;0.20;0.20;;;;;;;;;;6275723;22;20094;-89
2021/08/12 07:33:32;;;;;;;0.13;0.13;;;;;;;;;;6250478;22;20429;-89
2021/08/12 07:35:58;;;;;;;0.10;0.10;;;;;;;;;;6250495;22;20086;-88
2021/08/12 07:38:24;;;;;;;0.10;0.10;;;;;;;;;;6275552;22;20008;-90
2021/08/12 07:40:50;;;;;;;0.10;0.10;;;;;;;;;;6277305;22;20012;-90
2021/08/12 07:43:16;;;;;;;0.20;0.20;;;;;;;;;;6250483;22;20429;-89
2021/08/12 07:45:42;;;;;;;0.10;0.10;;;;;;;;;;6275704;22;20018;-90
2021/08/12 07:48:08;;;;;;;0.10;0.10;;;;;;;;;;6250117;22;20004;-89
2021/08/12 07:50:34;;;;;;;0.20;0.20;;;;;;;;;;6250332;22;20018;-90
2021/08/12 07:53:00;;;;;;;0.20;0.20;;;;;;;;;;6276061;22;20014;-90
2021/08/12 07:55:26;;;;;;;0.10;0.10;;;;;;;;;;6276459;22;20039;-90
2021/08/12 07:57:52;;;;;;;0.20;0.20;;;;;;;;;;6249654;22;20012;-90
2021/08/12 08:00:19;;;;;;;0.20;0.20;;;;;;;;;;6250382;22;20434;-91
2021/08/12 08:02:45;;;;;;;0.10;0.10;;;;;;;;;;6278137;22;20015;-90
2021/08/12 08:05:13;;;;;;;0.20;0.20;;;;;;;;;;6275735;22;20008;-88
2021/08/12 08:07:40;;;;;;;0.20;0.20;;;;;;;;;;6275445;22;20012;-89
2021/08/12 08:10:06;;;;;;;0.20;0.20;;;;;;;;;;6250092;22;20032;-89
2021/08/12 08:12:32;;;;;;;0.20;0.20;;;;;;;;;;6276824;22;20011;-90
2021/08/12 08:14:58;;;;;;;0.20;0.20;;;;;;;;;;6249263;22;20016;-90
2021/08/12 08:17:24;;;;;;;0.20;0.20;;;;;;;;;;6276149;22;20007;-90
2021/08/12 08:19:51;;;;;;;0.20;0.20;;;;;;;;;;6250008;22;20015;-89
2021/08/12 08:22:17;;;;;;;0.20;0.20;;;;;;;;;;6275358;22;20022;-89
2021/08/12 08:24:43;;;;;;;0.20;0.20;;;;;;;;;;6249563;22;20020;-90
2021/08/12 08:27:09;;;;;;;0.20;0.20;;;;;;;;;;6275303;22;20014;-86
2021/08/12 08:29:35;;;;;;;0.20;0.20;;;;;;;;;;6275155;22;20012;-86
2021/08/12 08:32:01;;;;;;;0.20;0.20;;;;;;;;;;6275109;22;20011;-86
2021/08/12 08:34:27;;;;;;;0.20;0.20;;;;;;;;;;6276529;22;20012;-86
2021/08/12 08:36:53;;;;;;;0.20;0.20;;;;;;;;;;6276572;22;20087;-86
2021/08/12 08:39:19;;;;;;;0.20;0.20;;;;;;;;;;6276552;22;20062;-86
2021/08/12 08:41:45;;;;;;;0.20;0.20;;;;;;;;;;6276484;22;20011;-86
2021/08/12 08:44:11;;;;;;;0.20;0.20;;;;;;;;;;6249769;22;20027;-86
2021/08/12 08:46:37;;;;;;;0.20;0.20;;;;;;;;;;6276389;22;20011;-86
2021/08/12 08:49:03;;;;;;;0.20;0.20;;;;;;;;;;6276440;22;20341;-86
2021/08/12 08:51:29;;;;;;;0.20;0.20;;;;;;;;;;6274886;22;20018;-86
2021/08/12 08:53:55;;;;;;;0.20;0.20;;;;;;;;;;6275045;22;20018;-86
2021/08/12 08:56:23;;;;;;;0.20;0.20;;;;;;;;;;6275071;22;20019;-88
2021/08/12 08:58:49;;;;;;;0.20;0.20;;;;;;;;;;6274680;22;20011;-88
2021/08/12 09:01:15;;;;;;;0.20;0.20;;;;;;;;;;6274999;22;20375;-88
2021/08/12 09:03:41;;;;;;;0.20;0.20;;;;;;;;;;6276515;22;20031;-87
2021/08/12 09:06:07;;;;;;;0.20;0.20;;;;;;;;;;6276256;22;20008;-91
2021/08/12 09:08:33;;;;;;;0.20;0.20;;;;;;;;;;6226563;22;20011;-88
2021/08/12 09:11:00;;;;;;;0.20;0.20;;;;;;;;;;6276249;22;20098;-88
2021/08/12 09:13:28;;;;;;;0.20;0.20;;;;;;;;;;6249186;22;20011;-87
2021/08/12 09:15:54;;;;;;;0.20;0.20;;;;;;;;;;6274429;22;20012;-87
2021/08/12 09:18:27;;;;;;;0.20;0.20;;;;;;;;;;6275975;22;20015;-87
2021/08/12 09:20:54;;;;;;;0.20;0.20;;;;;;;;;;6274455;22;20011;-87
2021/08/12 09:23:21;;;;;;;0.20;0.20;;;;;;;;;;6274317;22;20011;-85
2021/08/12 09:25:48;;;;;;;0.20;0.20;;;;;;;;;;6274179;22;20113;-84
2021/08/12 09:28:15;;;;;;;0.20;0.20;;;;;;;;;;6274149;22;20015;-86
2021/08/12 09:30:41;;;;;;;0.20;0.20;;;;;;;;;;6276018;22;20042;-86
2021/08/12 09:33:08;;;;;;;0.20;0.20;;;;;;;;;;6274392;22;20507;-87
2021/08/12 09:35:34;;;;;;;0.20;0.20;;;;;;;;;;6274242;22;20023;-87
2021/08/12 09:38:07;;;;;;;0.20;0.20;;;;;;;;;;6248562;22;20019;-87
2021/08/12 09:40:35;;;;;;;0.20;0.20;;;;;;;;;;6273665;22;20041;-87
2021/08/12 09:43:02;;;;;;;0.20;0.20;;;;;;;;;;6274477;22;20037;-88
2021/08/12 09:45:28;;;;;;;0.20;0.20;;;;;;;;;;6249039;22;20012;-87
2021/08/12 09:47:54;;;;;;;0.25;0.25;;;;;;;;;;6272365;22;20018;-87
2021/08/12 09:50:24;;;;;;;0.20;0.20;;;;;;;;;;6272977;22;20007;-88
2021/08/12 09:52:50;;;;;;;0.20;0.20;;;;;;;;;;6274098;22;20149;-87
2021/08/12 09:55:19;;;;;;;0.20;0.20;;;;;;;;;;6249008;22;20014;-88
2021/08/12 09:57:52;;;;;;;0.30;0.30;;;;;;;;;;6249365;22;20007;-88
2021/08/12 10:00:24;;;;;;;0.20;0.20;;;;;;;;;;6275459;22;20011;-89
2021/08/12 10:02:50;;;;;;;0.20;0.20;;;;;;;;;;6275612;22;20019;-88
2021/08/12 10:05:16;;;;;;;0.30;0.30;;;;;;;;;;6273985;22;20043;-88
2021/08/12 10:07:43;;;;;;;0.20;0.20;;;;;;;;;;6274284;22;20019;-89
2021/08/12 10:10:12;;;;;;;0.20;0.20;;;;;;;;;;6275396;22;20012;-87
2021/08/12 10:12:45;;;;;;;0.20;0.20;;;;;;;;;;6274173;22;20066;-88
2021/08/12 10:15:11;;;;;;;0.20;0.20;;;;;;;;;;6284238;22;20373;-88
2021/08/12 10:17:43;;;;;;;0.20;0.20;;;;;;;;;;6248320;22;20347;-89
2021/08/12 10:20:11;;;;;;;0.20;0.20;;;;;;;;;;6273951;22;20537;-90
2021/08/12 10:22:39;;;;;;;0.20;0.20;;;;;;;;;;6273931;22;20019;-88
2021/08/12 10:25:05;;;;;;;1.10;0.50;;;;;;;;;;6250534;22;20511;-86
2021/08/12 10:27:32;;;;;;;0.20;0.20;;;;;;;;;;6274720;22;20066;-88
2021/08/12 10:29:58;;;;;;;0.20;0.20;;;;;;;;;;6274084;22;20045;-88
2021/08/12 10:32:24;;;;;;;0.20;0.20;;;;;;;;;;6274006;22;20030;-88
2021/08/12 10:34:50;;;;;;;0.20;0.20;;;;;;;;;;6274058;22;20495;-87
2021/08/12 10:37:16;;;;;;;0.20;0.20;;;;;;;;;;6273941;22;20012;-88
2021/08/12 10:39:42;;;;;;;0.20;0.20;;;;;;;;;;6286906;22;20008;-89
2021/08/12 10:42:08;;;;;;;0.20;0.20;;;;;;;;;;6274838;22;20544;-89
2021/08/12 10:44:34;;;;;;;0.20;0.20;;;;;;;;;;6274155;22;20362;-88
2021/08/12 10:47:00;;;;;;;0.20;0.20;;;;;;;;;;6276047;22;20031;-87
2021/08/12 10:49:27;;;;;;;0.22;0.22;;;;;;;;;;6273913;22;20066;-87
2021/08/12 10:52:00;;;;;;;0.28;0.28;;;;;;;;;;6275361;22;20011;-87
2021/08/12 10:54:26;;;;;;;0.20;0.20;;;;;;;;;;6273514;22;20011;-88
2021/08/12 10:57:08;;;;;;;0.20;0.20;;;;;;;;;;6275306;22;20448;-87
2021/08/12 10:59:35;;;;;;;0.20;0.20;;;;;;;;;;6247861;22;20062;-89
2021/08/12 11:02:01;;;;;;;0.20;0.20;;;;;;;;;;6275134;22;20472;-87
2021/08/12 11:04:47;;;;;;;0.20;0.20;;;;;;;;;;6248410;22;20012;-88
2021/08/12 11:07:33;;;;;;;0.20;0.20;;;;;;;;;;6273430;22;20375;-90
2021/08/12 11:09:59;;;;;;;0.20;0.20;;;;;;;;;;6273479;22;20012;-89
2021/08/12 11:12:43;;;;;;;0.20;0.20;;;;;;;;;;6273747;22;20012;-89
2021/08/12 11:15:10;;;;;;;0.20;0.20;;;;;;;;;;6273449;22;20073;-89
2021/08/12 11:17:54;;;;;;;0.20;0.20;;;;;;;;;;6273720;22;20042;-89
2021/08/12 11:20:31;;;;;;;0.20;0.20;;;;;;;;;;6275291;22;20024;-89
2021/08/12 11:23:19;;;;;;;0.20;0.20;;;;;;;;;;6248676;22;20015;-89
2021/08/12 11:25:58;;;;;;;0.20;0.20;;;;;;;;;;6275462;22;20008;-88
2021/08/12 11:28:39;;;;;;;0.20;0.20;;;;;;;;;;6247975;22;20008;-88
2021/08/12 11:31:07;;;;;;;0.20;0.20;;;;;;;;;;6275336;22;20015;-88
2021/08/12 11:33:34;;;;;;;0.20;0.20;;;;;;;;;;6273538;22;20008;-91
2021/08/12 11:36:07;;;;;;;0.20;0.20;;;;;;;;;;6248544;22;20039;-87
2021/08/12 11:38:33;;;;;;;0.20;0.20;;;;;;;;;;6274615;22;20087;-87
2021/08/12 11:40:59;;;;;;;0.20;0.20;;;;;;;;;;6248000;22;20043;-88
2021/08/12 11:43:25;;;;;;;0.20;0.20;;;;;;;;;;6244374;22;20098;-87
2021/08/12 11:45:51;;;;;;;0.20;0.20;;;;;;;;;;6247539;22;20015;-86
2021/08/12 11:48:17;;;;;;;0.20;0.20;;;;;;;;;;6272552;22;20449;-87
2021/08/12 11:50:43;;;;;;;0.20;0.20;;;;;;;;;;6275262;22;20008;-88
2021/08/12 11:53:09;;;;;;;0.20;0.20;;;;;;;;;;6249548;22;20022;-87
2021/08/12 11:55:36;;;;;;;0.20;0.20;;;;;;;;;;6277020;22;20333;-88
2021/08/12 11:58:02;;;;;;;0.20;0.20;;;;;;;;;;6276392;22;20018;-90
2021/08/12 12:00:29;;;;;;;0.22;0.22;;;;;;;;;;6250029;22;20018;-88
2021/08/12 12:02:56;;;;;;;0.22;0.22;;;;;;;;;;6249733;22;20023;-86
2021/08/12 12:05:23;;;;;;;0.20;0.20;;;;;;;;;;6275614;22;20008;-86
2021/08/12 12:07:50;;;;;;;0.20;0.20;;;;;;;;;;6275251;22;20091;-86
2021/08/12 12:10:23;;;;;;;0.20;0.20;;;;;;;;;;6276773;22;20379;-86
2021/08/12 12:12:49;;;;;;;0.20;0.20;;;;;;;;;;6277016;22;20042;-86
2021/08/12 12:15:30;;;;;;;0.35;0.35;;;;;;;;;;6276870;22;20373;-86
2021/08/12 12:17:56;;;;;;;0.20;0.20;;;;;;;;;;6276768;22;20012;-85
2021/08/12 12:20:24;;;;;;;0.20;0.20;;;;;;;;;;6275579;22;20012;-86
2021/08/12 12:22:56;;;;;;;0.20;0.20;;;;;;;;;;6274959;22;20386;-85
2021/08/12 12:25:24;;;;;;;0.28;0.28;;;;;;;;;;6276542;22;20019;-86
2021/08/12 12:27:50;;;;;;;0.17;0.17;;;;;;;;;;6250194;22;20015;-87
2021/08/12 12:30:16;;;;;;;0.30;0.30;;;;;;;;;;6275350;22;20012;-86
2021/08/12 12:32:43;;;;;;;0.20;0.20;;;;;;;;;;6276685;22;20011;-86
2021/08/12 12:35:10;;;;;;;0.20;0.20;;;;;;;;;;6276538;22;20015;-86
2021/08/12 12:37:36;;;;;;;0.20;0.20;;;;;;;;;;6276215;22;20506;-85
2021/08/12 12:40:03;;;;;;;0.20;0.20;;;;;;;;;;6285335;22;20444;-85
2021/08/12 12:42:33;;;;;;;0.20;0.20;;;;;;;;;;6249508;22;20472;-85
2021/08/12 12:45:06;;;;;;;0.20;0.20;;;;;;;;;;6275109;22;20022;-85
2021/08/12 12:47:32;;;;;;;0.20;0.20;;;;;;;;;;6249387;22;20016;-87
2021/08/12 12:50:08;;;;;;;0.20;0.20;;;;;;;;;;6275446;22;20019;-86
2021/08/12 12:52:34;;;;;;;0.20;0.20;;;;;;;;;;6276546;22;20461;-85
2021/08/12 12:55:00;;;;;;;0.20;0.20;;;;;;;;;;6276175;22;20023;-86
2021/08/12 12:57:30;;;;;;;0.20;0.20;;;;;;;;;;6274959;22;20086;-86
2021/08/12 12:59:56;;;;;;;0.47;0.30;;;;;;;;;;6274994;22;20012;-86
2021/08/12 13:02:22;;;;;;;0.20;0.20;;;;;;;;;;6276300;22;20086;-86
2021/08/12 13:04:57;;;;;;;0.20;0.20;;;;;;;;;;6274865;22;20457;-86
2021/08/12 13:07:23;;;;;;;0.20;0.20;;;;;;;;;;6281240;22;20337;-86
2021/08/12 13:09:49;;;;;;;0.20;0.20;;;;;;;;;;6274692;22;20091;-86
2021/08/12 13:12:28;;;;;;;0.20;0.20;;;;;;;;;;6275394;22;20020;-84
2021/08/12 13:15:09;;;;;;;0.55;0.55;;;;;;;;;;6274527;22;20016;-87
2021/08/12 13:17:35;;;;;;;0.20;0.20;;;;;;;;;;6276156;22;20007;-86
2021/08/12 13:20:14;;;;;;;0.15;0.15;;;;;;;;;;6274720;22;20012;-86
2021/08/12 13:22:40;;;;;;;0.20;0.20;;;;;;;;;;6274649;22;20015;-86
2021/08/12 13:25:13;;;;;;;0.30;0.30;;;;;;;;;;6274786;22;20034;-86
2021/08/12 13:27:46;;;;;;;0.40;0.40;;;;;;;;;;6281061;22;20016;-86
2021/08/12 13:30:12;;;;;;;0.73;0.73;;;;;;;;;;6274253;22;20050;-87
2021/08/12 13:32:38;;;;;;;0.20;0.20;;;;;;;;;;6274674;22;20061;-86
2021/08/12 13:35:05;;;;;;;0.20;0.20;;;;;;;;;;6274705;22;20043;-86
2021/08/12 13:37:31;;;;;;;0.20;0.20;;;;;;;;;;6248943;22;20158;-87
2021/08/12 13:39:57;;;;;;;0.20;0.20;;;;;;;;;;6259222;22;20441;-87
2021/08/12 13:42:23;;;;;;;0.20;0.20;;;;;;;;;;6274565;22;20012;-86
2021/08/12 13:44:49;;;;;;;0.20;0.20;;;;;;;;;;6274571;22;20087;-86
2021/08/12 13:47:15;;;;;;;0.20;0.20;;;;;;;;;;6275873;22;20511;-86
2021/08/12 13:49:41;;;;;;;0.20;0.20;;;;;;;;;;6274310;22;20015;-86
2021/08/12 13:52:07;;;;;;;0.20;0.20;;;;;;;;;;6274411;22;20016;-86
2021/08/12 13:54:34;;;;;;;0.22;0.22;;;;;;;;;;6274220;22;20011;-87
2021/08/12 13:57:00;;;;;;;0.30;0.30;;;;;;;;;;6248973;22;20030;-86
2021/08/12 13:59:27;;;;;;;0.50;0.50;;;;;;;;;;6274981;22;20015;-89
2021/08/12 14:01:53;;;;;;;0.20;0.20;;;;;;;;;;6274349;22;20011;-88
2021/08/12 14:04:19;;;;;;;0.20;0.20;;;;;;;;;;6275802;22;20011;-87
2021/08/12 14:06:45;;;;;;;0.20;0.20;;;;;;;;;;6248699;22;20012;-88
2021/08/12 14:09:11;;;;;;;0.43;0.43;;;;;;;;;;6274242;22;20080;-86
2021/08/12 14:11:37;;;;;;;0.73;0.50;;;;;;;;;;6274234;22;20084;-86
2021/08/12 14:14:05;;;;;;;0.20;0.20;;;;;;;;;;6273789;22;20350;-87
2021/08/12 14:16:32;;;;;;;0.20;0.20;;;;;;;;;;6248872;22;20035;-89
2021/08/12 14:18:58;;;;;;;0.20;0.20;;;;;;;;;;6274296;22;20377;-86
2021/08/12 14:21:24;;;;;;;0.30;0.30;;;;;;;;;;6274133;22;20015;-86
2021/08/12 14:23:50;;;;;;;1.00;0.75;;;;;;;;;;6275405;22;20020;-87
2021/08/12 14:26:16;;;;;;;0.20;0.20;;;;;;;;;;6274091;22;20008;-86
2021/08/12 14:28:42;;;;;;;0.30;0.30;;;;;;;;;;6275371;22;20079;-86
2021/08/12 14:31:10;;;;;;;0.20;0.20;;;;;;;;;;6274144;22;20019;-87
2021/08/12 14:33:36;;;;;;;0.20;0.20;;;;;;;;;;6274063;22;20375;-86
2021/08/12 14:36:03;;;;;;;0.30;0.30;;;;;;;;;;6273829;22;20464;-86
2021/08/12 14:38:29;;;;;;;0.20;0.20;;;;;;;;;;6275299;22;20157;-87
2021/08/12 14:40:57;;;;;;;0.20;0.20;;;;;;;;;;6274109;22;20464;-86
2021/08/12 14:43:23;;;;;;;0.25;0.25;;;;;;;;;;6248703;22;20088;-86